sensor_id;sensor_type;location;lat;lon;timestamp;P1;durP1;ratioP1;P2;durP2;ratioP2
39680;SDS011;26327;42.550;23.120;2022-08-19T08:05:59;10.23;;;5.53;;
39680;SDS011;26327;42.550;23.120;2022-08-19T08:08:42;13.95;;;4.88;;
39680;SDS011;26327;42.550;23.120;2022-08-19T08:11:16;10.00;;;4.93;;
39680;SDS011;26327;42.550;23.120;2022-08-19T08:13:44;11.85;;;5.40;;
39680;SDS011;26327;42.550;23.120;2022-08-19T08:16:10;9.90;;;5.10;;
39680;SDS011;26327;42.550;23.120;2022-08-19T08:18:35;11.13;;;6.00;;
39680;SDS011;26327;42.550;23.120;2022-08-19T08:21:06;11.00;;;5.30;;
39680;SDS011;26327;42.550;23.120;2022-08-19T08:23:32;10.45;;;4.78;;
39680;SDS011;26327;42.550;23.120;2022-08-19T08:25:58;9.20;;;4.78;;
39680;SDS011;26327;42.550;23.120;2022-08-19T08:28:25;7.15;;;4.35;;
39680;SDS011;26327;42.550;23.120;2022-08-19T08:30:52;8.68;;;4.65;;
39680;SDS011;26327;42.550;23.120;2022-08-19T08:33:20;7.82;;;4.72;;
39680;SDS011;26327;42.550;23.120;2022-08-19T08:38:15;7.13;;;4.68;;
39680;SDS011;26327;42.550;23.120;2022-08-19T08:40:47;9.50;;;4.38;;
39680;SDS011;26327;42.550;23.120;2022-08-19T08:43:29;10.40;;;4.60;;
39680;SDS011;26327;42.550;23.120;2022-08-19T08:46:06;9.00;;;4.70;;
39680;SDS011;26327;42.550;23.120;2022-08-19T08:48:39;5.80;;;4.50;;
39680;SDS011;26327;42.550;23.120;2022-08-19T08:51:14;8.82;;;4.80;;
39680;SDS011;26327;42.550;23.120;2022-08-19T08:53:47;7.13;;;4.95;;
39680;SDS011;26327;42.550;23.120;2022-08-19T08:56:15;7.97;;;4.90;;
39680;SDS011;26327;42.550;23.120;2022-08-19T09:01:34;10.18;;;4.85;;
39680;SDS011;26327;42.550;23.120;2022-08-19T09:04:02;6.97;;;5.10;;
39680;SDS011;26327;42.550;23.120;2022-08-19T09:06:38;9.40;;;4.90;;
39680;SDS011;26327;42.550;23.120;2022-08-19T09:09:26;5.93;;;4.35;;
39680;SDS011;26327;42.550;23.120;2022-08-19T09:17:21;8.75;;;4.53;;
39680;SDS011;26327;42.550;23.120;2022-08-19T09:22:32;6.18;;;4.70;;
39680;SDS011;26327;42.550;23.120;2022-08-19T09:24:58;6.20;;;4.43;;
39680;SDS011;26327;42.550;23.120;2022-08-19T09:27:25;7.97;;;4.43;;
39680;SDS011;26327;42.550;23.120;2022-08-19T09:29:52;7.03;;;4.90;;
39680;SDS011;26327;42.550;23.120;2022-08-19T09:32:19;7.97;;;4.93;;
39680;SDS011;26327;42.550;23.120;2022-08-19T09:34:45;11.15;;;4.50;;
39680;SDS011;26327;42.550;23.120;2022-08-19T09:37:10;6.63;;;4.50;;
39680;SDS011;26327;42.550;23.120;2022-08-19T09:39:37;7.82;;;4.45;;
39680;SDS011;26327;42.550;23.120;2022-08-19T09:42:05;5.65;;;4.32;;
39680;SDS011;26327;42.550;23.120;2022-08-19T09:44:36;7.88;;;4.60;;
39680;SDS011;26327;42.550;23.120;2022-08-19T09:47:02;7.05;;;4.55;;
39680;SDS011;26327;42.550;23.120;2022-08-19T09:49:28;6.55;;;4.63;;
39680;SDS011;26327;42.550;23.120;2022-08-19T09:51:54;8.88;;;4.85;;
39680;SDS011;26327;42.550;23.120;2022-08-19T09:54:20;5.35;;;4.22;;
39680;SDS011;26327;42.550;23.120;2022-08-19T09:56:46;7.65;;;4.88;;
39680;SDS011;26327;42.550;23.120;2022-08-19T09:59:11;7.55;;;4.70;;
39680;SDS011;26327;42.550;23.120;2022-08-19T10:01:37;6.18;;;4.90;;
39680;SDS011;26327;42.550;23.120;2022-08-19T10:04:03;7.38;;;4.60;;
39680;SDS011;26327;42.550;23.120;2022-08-19T10:06:34;6.10;;;4.63;;
39680;SDS011;26327;42.550;23.120;2022-08-19T10:09:00;5.95;;;3.92;;
39680;SDS011;26327;42.550;23.120;2022-08-19T10:11:29;6.90;;;4.28;;
39680;SDS011;26327;42.550;23.120;2022-08-19T10:13:54;5.78;;;4.32;;
39680;SDS011;26327;42.550;23.120;2022-08-19T10:16:21;7.53;;;4.13;;
39680;SDS011;26327;42.550;23.120;2022-08-19T10:18:48;8.02;;;4.32;;
39680;SDS011;26327;42.550;23.120;2022-08-19T10:21:17;7.68;;;4.18;;
39680;SDS011;26327;42.550;23.120;2022-08-19T10:23:46;7.65;;;4.10;;
39680;SDS011;26327;42.550;23.120;2022-08-19T10:26:15;6.47;;;3.55;;
39680;SDS011;26327;42.550;23.120;2022-08-19T10:28:46;8.48;;;4.68;;
39680;SDS011;26327;42.550;23.120;2022-08-19T10:31:14;7.75;;;4.22;;
39680;SDS011;26327;42.550;23.120;2022-08-19T10:33:42;9.45;;;4.43;;
39680;SDS011;26327;42.550;23.120;2022-08-19T10:36:10;7.22;;;4.13;;
39680;SDS011;26327;42.550;23.120;2022-08-19T10:38:37;9.93;;;4.57;;
39680;SDS011;26327;42.550;23.120;2022-08-19T10:41:11;8.05;;;4.13;;
39680;SDS011;26327;42.550;23.120;2022-08-19T10:43:38;6.88;;;3.90;;
39680;SDS011;26327;42.550;23.120;2022-08-19T10:46:06;8.40;;;4.28;;
39680;SDS011;26327;42.550;23.120;2022-08-19T10:48:33;7.00;;;4.50;;
39680;SDS011;26327;42.550;23.120;2022-08-19T10:50:59;10.75;;;4.30;;
39680;SDS011;26327;42.550;23.120;2022-08-19T10:53:43;5.32;;;4.57;;
39680;SDS011;26327;42.550;23.120;2022-08-19T10:56:09;5.97;;;4.00;;
39680;SDS011;26327;42.550;23.120;2022-08-19T10:58:53;11.57;;;5.10;;
39680;SDS011;26327;42.550;23.120;2022-08-19T11:01:18;6.75;;;4.35;;
39680;SDS011;26327;42.550;23.120;2022-08-19T11:03:44;6.70;;;4.22;;
39680;SDS011;26327;42.550;23.120;2022-08-19T11:06:10;6.05;;;4.47;;
39680;SDS011;26327;42.550;23.120;2022-08-19T11:08:37;9.48;;;4.30;;
39680;SDS011;26327;42.550;23.120;2022-08-19T11:11:04;6.00;;;4.20;;
39680;SDS011;26327;42.550;23.120;2022-08-19T11:13:33;7.30;;;4.32;;
39680;SDS011;26327;42.550;23.120;2022-08-19T11:16:06;7.88;;;4.60;;
39680;SDS011;26327;42.550;23.120;2022-08-19T11:18:40;6.97;;;4.20;;
39680;SDS011;26327;42.550;23.120;2022-08-19T11:23:37;7.35;;;4.78;;
39680;SDS011;26327;42.550;23.120;2022-08-19T11:26:03;5.60;;;4.25;;
39680;SDS011;26327;42.550;23.120;2022-08-19T11:28:28;7.22;;;4.07;;
39680;SDS011;26327;42.550;23.120;2022-08-19T11:30:54;9.30;;;4.68;;
39680;SDS011;26327;42.550;23.120;2022-08-19T11:33:20;7.72;;;4.40;;
39680;SDS011;26327;42.550;23.120;2022-08-19T11:35:45;6.50;;;4.30;;
39680;SDS011;26327;42.550;23.120;2022-08-19T11:38:10;8.10;;;4.15;;
39680;SDS011;26327;42.550;23.120;2022-08-19T11:43:25;5.35;;;3.97;;
39680;SDS011;26327;42.550;23.120;2022-08-19T11:45:52;6.28;;;4.50;;
39680;SDS011;26327;42.550;23.120;2022-08-19T11:48:21;8.40;;;4.25;;
39680;SDS011;26327;42.550;23.120;2022-08-19T11:50:48;6.20;;;4.53;;
39680;SDS011;26327;42.550;23.120;2022-08-19T11:53:14;9.07;;;4.43;;
39680;SDS011;26327;42.550;23.120;2022-08-19T11:55:40;6.68;;;4.32;;
39680;SDS011;26327;42.550;23.120;2022-08-19T11:58:07;8.82;;;4.35;;
39680;SDS011;26327;42.550;23.120;2022-08-19T12:00:33;7.55;;;4.05;;
39680;SDS011;26327;42.550;23.120;2022-08-19T12:03:00;6.18;;;4.28;;
39680;SDS011;26327;42.550;23.120;2022-08-19T12:05:26;5.38;;;3.97;;
39680;SDS011;26327;42.550;23.120;2022-08-19T12:07:51;8.98;;;4.22;;
39680;SDS011;26327;42.550;23.120;2022-08-19T12:10:17;5.43;;;4.25;;
39680;SDS011;26327;42.550;23.120;2022-08-19T12:12:42;7.75;;;4.72;;
39680;SDS011;26327;42.550;23.120;2022-08-19T12:15:09;6.57;;;4.00;;
39680;SDS011;26327;42.550;23.120;2022-08-19T12:17:36;7.40;;;4.28;;
39680;SDS011;26327;42.550;23.120;2022-08-19T12:20:03;6.68;;;4.35;;
39680;SDS011;26327;42.550;23.120;2022-08-19T12:22:29;7.38;;;4.20;;
39680;SDS011;26327;42.550;23.120;2022-08-19T12:24:55;8.40;;;4.25;;
39680;SDS011;26327;42.550;23.120;2022-08-19T12:27:20;5.93;;;4.18;;
39680;SDS011;26327;42.550;23.120;2022-08-19T12:29:46;11.43;;;4.43;;
39680;SDS011;26327;42.550;23.120;2022-08-19T12:32:12;10.23;;;4.35;;
39680;SDS011;26327;42.550;23.120;2022-08-19T12:34:37;7.70;;;4.13;;
39680;SDS011;26327;42.550;23.120;2022-08-19T12:37:04;6.97;;;4.25;;
39680;SDS011;26327;42.550;23.120;2022-08-19T12:39:35;7.95;;;4.45;;
39680;SDS011;26327;42.550;23.120;2022-08-19T12:42:01;12.40;;;4.68;;
39680;SDS011;26327;42.550;23.120;2022-08-19T12:44:27;8.80;;;4.47;;
39680;SDS011;26327;42.550;23.120;2022-08-19T12:46:54;4.72;;;4.20;;
39680;SDS011;26327;42.550;23.120;2022-08-19T12:49:19;5.80;;;4.10;;
39680;SDS011;26327;42.550;23.120;2022-08-19T12:51:44;7.80;;;4.47;;
39680;SDS011;26327;42.550;23.120;2022-08-19T12:54:11;6.28;;;4.28;;
39680;SDS011;26327;42.550;23.120;2022-08-19T12:56:36;7.97;;;4.15;;
39680;SDS011;26327;42.550;23.120;2022-08-19T12:59:02;6.97;;;4.25;;
39680;SDS011;26327;42.550;23.120;2022-08-19T13:01:28;6.65;;;4.00;;
39680;SDS011;26327;42.550;23.120;2022-08-19T13:03:57;5.93;;;3.70;;
39680;SDS011;26327;42.550;23.120;2022-08-19T13:06:23;14.60;;;6.05;;
39680;SDS011;26327;42.550;23.120;2022-08-19T13:08:49;8.30;;;4.82;;
39680;SDS011;26327;42.550;23.120;2022-08-19T13:11:15;9.43;;;4.43;;
39680;SDS011;26327;42.550;23.120;2022-08-19T13:13:43;8.27;;;4.47;;
39680;SDS011;26327;42.550;23.120;2022-08-19T13:16:12;9.70;;;4.35;;
39680;SDS011;26327;42.550;23.120;2022-08-19T13:18:38;8.77;;;4.78;;
39680;SDS011;26327;42.550;23.120;2022-08-19T13:21:06;4.80;;;4.20;;
39680;SDS011;26327;42.550;23.120;2022-08-19T13:23:33;7.35;;;4.25;;
39680;SDS011;26327;42.550;23.120;2022-08-19T13:26:01;6.60;;;4.15;;
39680;SDS011;26327;42.550;23.120;2022-08-19T13:28:29;8.02;;;4.63;;
39680;SDS011;26327;42.550;23.120;2022-08-19T13:31:16;5.68;;;4.43;;
39680;SDS011;26327;42.550;23.120;2022-08-19T13:34:02;5.35;;;4.40;;
39680;SDS011;26327;42.550;23.120;2022-08-19T13:36:28;10.80;;;4.57;;
39680;SDS011;26327;42.550;23.120;2022-08-19T13:38:54;8.48;;;4.20;;
39680;SDS011;26327;42.550;23.120;2022-08-19T13:41:19;7.32;;;4.20;;
39680;SDS011;26327;42.550;23.120;2022-08-19T13:43:45;9.65;;;4.50;;
39680;SDS011;26327;42.550;23.120;2022-08-19T13:46:11;7.47;;;4.68;;
39680;SDS011;26327;42.550;23.120;2022-08-19T13:51:08;9.55;;;4.35;;
39680;SDS011;26327;42.550;23.120;2022-08-19T13:53:38;8.95;;;4.80;;
39680;SDS011;26327;42.550;23.120;2022-08-19T13:56:05;5.93;;;4.18;;
39680;SDS011;26327;42.550;23.120;2022-08-19T13:58:32;9.73;;;4.80;;
39680;SDS011;26327;42.550;23.120;2022-08-19T14:00:57;6.70;;;4.13;;
39680;SDS011;26327;42.550;23.120;2022-08-19T14:03:24;9.63;;;4.25;;
39680;SDS011;26327;42.550;23.120;2022-08-19T14:05:50;9.18;;;4.53;;
39680;SDS011;26327;42.550;23.120;2022-08-19T14:08:15;8.32;;;4.32;;
39680;SDS011;26327;42.550;23.120;2022-08-19T14:10:42;7.00;;;4.50;;
39680;SDS011;26327;42.550;23.120;2022-08-19T14:13:09;8.60;;;4.40;;
39680;SDS011;26327;42.550;23.120;2022-08-19T14:15:38;6.72;;;3.67;;
39680;SDS011;26327;42.550;23.120;2022-08-19T14:18:03;7.32;;;4.30;;
39680;SDS011;26327;42.550;23.120;2022-08-19T14:20:29;7.80;;;4.57;;
39680;SDS011;26327;42.550;23.120;2022-08-19T14:22:54;9.93;;;4.30;;
39680;SDS011;26327;42.550;23.120;2022-08-19T14:25:21;10.05;;;4.30;;
39680;SDS011;26327;42.550;23.120;2022-08-19T14:30:16;7.10;;;3.90;;
39680;SDS011;26327;42.550;23.120;2022-08-19T14:32:43;10.93;;;3.85;;
39680;SDS011;26327;42.550;23.120;2022-08-19T14:35:09;8.45;;;4.68;;
39680;SDS011;26327;42.550;23.120;2022-08-19T14:37:37;7.37;;;4.20;;
39680;SDS011;26327;42.550;23.120;2022-08-19T14:40:05;9.93;;;4.80;;
39680;SDS011;26327;42.550;23.120;2022-08-19T14:42:31;10.05;;;5.03;;
39680;SDS011;26327;42.550;23.120;2022-08-19T14:44:57;9.48;;;4.50;;
39680;SDS011;26327;42.550;23.120;2022-08-19T14:47:24;8.75;;;4.80;;
39680;SDS011;26327;42.550;23.120;2022-08-19T14:49:49;7.10;;;4.35;;
39680;SDS011;26327;42.550;23.120;2022-08-19T14:52:15;9.35;;;4.60;;
39680;SDS011;26327;42.550;23.120;2022-08-19T14:54:41;6.13;;;4.10;;
39680;SDS011;26327;42.550;23.120;2022-08-19T14:57:06;6.32;;;4.40;;
39680;SDS011;26327;42.550;23.120;2022-08-19T14:59:33;8.73;;;4.43;;
39680;SDS011;26327;42.550;23.120;2022-08-19T15:01:59;8.93;;;4.38;;
39680;SDS011;26327;42.550;23.120;2022-08-19T15:04:25;9.50;;;4.72;;
39680;SDS011;26327;42.550;23.120;2022-08-19T15:06:50;7.78;;;4.32;;
39680;SDS011;26327;42.550;23.120;2022-08-19T15:09:16;6.60;;;4.22;;
39680;SDS011;26327;42.550;23.120;2022-08-19T15:11:42;10.98;;;4.50;;
39680;SDS011;26327;42.550;23.120;2022-08-19T15:14:07;9.88;;;4.43;;
39680;SDS011;26327;42.550;23.120;2022-08-19T15:16:35;10.95;;;4.68;;
39680;SDS011;26327;42.550;23.120;2022-08-19T15:19:00;14.30;;;4.75;;
39680;SDS011;26327;42.550;23.120;2022-08-19T15:21:27;9.75;;;4.35;;
39680;SDS011;26327;42.550;23.120;2022-08-19T15:23:55;8.25;;;4.60;;
39680;SDS011;26327;42.550;23.120;2022-08-19T15:26:22;6.38;;;4.57;;
39680;SDS011;26327;42.550;23.120;2022-08-19T15:28:49;9.32;;;4.53;;
39680;SDS011;26327;42.550;23.120;2022-08-19T15:31:16;11.75;;;5.32;;
39680;SDS011;26327;42.550;23.120;2022-08-19T15:33:43;7.72;;;4.55;;
39680;SDS011;26327;42.550;23.120;2022-08-19T15:36:09;8.05;;;5.00;;
39680;SDS011;26327;42.550;23.120;2022-08-19T15:38:37;12.93;;;5.03;;
39680;SDS011;26327;42.550;23.120;2022-08-19T15:41:04;8.60;;;4.82;;
39680;SDS011;26327;42.550;23.120;2022-08-19T15:43:49;9.25;;;4.20;;
39680;SDS011;26327;42.550;23.120;2022-08-19T15:46:17;16.63;;;7.72;;
39680;SDS011;26327;42.550;23.120;2022-08-19T15:48:46;12.68;;;5.90;;
39680;SDS011;26327;42.550;23.120;2022-08-19T15:51:12;14.80;;;5.43;;
39680;SDS011;26327;42.550;23.120;2022-08-19T15:53:38;20.02;;;6.35;;
39680;SDS011;26327;42.550;23.120;2022-08-19T15:56:05;11.32;;;5.85;;
39680;SDS011;26327;42.550;23.120;2022-08-19T15:58:31;8.75;;;4.43;;
39680;SDS011;26327;42.550;23.120;2022-08-19T16:01:15;13.15;;;4.95;;
39680;SDS011;26327;42.550;23.120;2022-08-19T16:03:59;8.45;;;4.80;;
39680;SDS011;26327;42.550;23.120;2022-08-19T16:06:48;8.38;;;5.03;;
39680;SDS011;26327;42.550;23.120;2022-08-19T16:09:17;7.75;;;5.05;;
39680;SDS011;26327;42.550;23.120;2022-08-19T16:11:46;10.90;;;5.43;;
39680;SDS011;26327;42.550;23.120;2022-08-19T16:14:15;11.23;;;4.80;;
39680;SDS011;26327;42.550;23.120;2022-08-19T16:16:43;13.13;;;5.13;;
39680;SDS011;26327;42.550;23.120;2022-08-19T16:19:10;17.40;;;5.47;;
39680;SDS011;26327;42.550;23.120;2022-08-19T16:21:39;8.17;;;4.73;;
39680;SDS011;26327;42.550;23.120;2022-08-19T16:24:06;7.25;;;4.38;;
39680;SDS011;26327;42.550;23.120;2022-08-19T16:26:33;8.98;;;4.15;;
39680;SDS011;26327;42.550;23.120;2022-08-19T16:28:59;10.93;;;5.32;;
39680;SDS011;26327;42.550;23.120;2022-08-19T16:31:27;10.20;;;5.32;;
39680;SDS011;26327;42.550;23.120;2022-08-19T16:33:53;9.43;;;4.90;;
39680;SDS011;26327;42.550;23.120;2022-08-19T16:36:19;10.68;;;5.15;;
39680;SDS011;26327;42.550;23.120;2022-08-19T16:38:48;13.75;;;5.80;;
39680;SDS011;26327;42.550;23.120;2022-08-19T16:41:14;10.70;;;5.40;;
39680;SDS011;26327;42.550;23.120;2022-08-19T16:43:39;10.65;;;5.47;;
39680;SDS011;26327;42.550;23.120;2022-08-19T16:46:06;8.50;;;5.13;;
39680;SDS011;26327;42.550;23.120;2022-08-19T16:48:33;8.73;;;4.93;;
39680;SDS011;26327;42.550;23.120;2022-08-19T16:50:59;8.98;;;4.90;;
39680;SDS011;26327;42.550;23.120;2022-08-19T16:53:26;12.93;;;5.78;;
39680;SDS011;26327;42.550;23.120;2022-08-19T16:55:56;8.70;;;5.40;;
39680;SDS011;26327;42.550;23.120;2022-08-19T16:58:23;8.15;;;5.47;;
39680;SDS011;26327;42.550;23.120;2022-08-19T17:00:50;11.57;;;5.45;;
39680;SDS011;26327;42.550;23.120;2022-08-19T17:03:17;11.80;;;5.47;;
39680;SDS011;26327;42.550;23.120;2022-08-19T17:05:48;15.55;;;5.93;;
39680;SDS011;26327;42.550;23.120;2022-08-19T17:08:17;11.40;;;5.40;;
39680;SDS011;26327;42.550;23.120;2022-08-19T17:10:45;15.10;;;6.55;;
39680;SDS011;26327;42.550;23.120;2022-08-19T17:13:11;14.27;;;7.47;;
39680;SDS011;26327;42.550;23.120;2022-08-19T17:15:39;12.27;;;6.38;;
39680;SDS011;26327;42.550;23.120;2022-08-19T17:18:06;15.02;;;6.97;;
39680;SDS011;26327;42.550;23.120;2022-08-19T17:20:33;15.88;;;5.93;;
39680;SDS011;26327;42.550;23.120;2022-08-19T17:22:59;11.50;;;6.53;;
39680;SDS011;26327;42.550;23.120;2022-08-19T17:25:25;11.35;;;6.55;;
39680;SDS011;26327;42.550;23.120;2022-08-19T17:27:52;12.88;;;5.88;;
39680;SDS011;26327;42.550;23.120;2022-08-19T17:30:18;12.15;;;5.63;;
39680;SDS011;26327;42.550;23.120;2022-08-19T17:32:46;11.00;;;6.40;;
39680;SDS011;26327;42.550;23.120;2022-08-19T17:35:12;14.52;;;6.15;;
39680;SDS011;26327;42.550;23.120;2022-08-19T17:37:45;10.75;;;6.20;;
39680;SDS011;26327;42.550;23.120;2022-08-19T17:40:11;17.23;;;6.70;;
39680;SDS011;26327;42.550;23.120;2022-08-19T17:42:37;13.07;;;6.45;;
39680;SDS011;26327;42.550;23.120;2022-08-19T17:45:04;10.68;;;6.20;;
39680;SDS011;26327;42.550;23.120;2022-08-19T17:47:30;12.27;;;6.43;;
39680;SDS011;26327;42.550;23.120;2022-08-19T17:49:55;15.85;;;7.43;;
39680;SDS011;26327;42.550;23.120;2022-08-19T17:52:22;14.32;;;6.65;;
39680;SDS011;26327;42.550;23.120;2022-08-19T17:54:47;15.65;;;6.20;;
39680;SDS011;26327;42.550;23.120;2022-08-19T17:57:13;10.35;;;6.07;;
39680;SDS011;26327;42.550;23.120;2022-08-19T17:59:38;12.82;;;6.60;;
39680;SDS011;26327;42.550;23.120;2022-08-19T18:02:05;10.50;;;5.95;;
39680;SDS011;26327;42.550;23.120;2022-08-19T18:04:32;11.02;;;7.10;;
39680;SDS011;26327;42.550;23.120;2022-08-19T18:06:57;10.65;;;5.97;;
39680;SDS011;26327;42.550;23.120;2022-08-19T18:09:27;10.67;;;6.00;;
39680;SDS011;26327;42.550;23.120;2022-08-19T18:11:54;13.90;;;7.15;;
39680;SDS011;26327;42.550;23.120;2022-08-19T18:14:21;13.52;;;6.28;;
39680;SDS011;26327;42.550;23.120;2022-08-19T18:16:52;10.65;;;6.47;;
39680;SDS011;26327;42.550;23.120;2022-08-19T18:19:24;12.10;;;6.70;;
39680;SDS011;26327;42.550;23.120;2022-08-19T18:21:50;14.65;;;6.90;;
39680;SDS011;26327;42.550;23.120;2022-08-19T18:24:16;13.65;;;6.97;;
39680;SDS011;26327;42.550;23.120;2022-08-19T18:26:42;11.95;;;6.95;;
39680;SDS011;26327;42.550;23.120;2022-08-19T18:29:08;8.65;;;6.53;;
39680;SDS011;26327;42.550;23.120;2022-08-19T18:31:34;12.35;;;7.32;;
39680;SDS011;26327;42.550;23.120;2022-08-19T18:34:00;11.45;;;7.10;;
39680;SDS011;26327;42.550;23.120;2022-08-19T18:36:26;10.00;;;7.75;;
39680;SDS011;26327;42.550;23.120;2022-08-19T18:38:53;12.57;;;7.63;;
39680;SDS011;26327;42.550;23.120;2022-08-19T18:41:37;13.10;;;7.70;;
39680;SDS011;26327;42.550;23.120;2022-08-19T18:44:21;11.75;;;7.10;;
39680;SDS011;26327;42.550;23.120;2022-08-19T18:47:04;11.15;;;7.03;;
39680;SDS011;26327;42.550;23.120;2022-08-19T18:49:49;13.60;;;7.90;;
39680;SDS011;26327;42.550;23.120;2022-08-19T18:52:15;11.85;;;7.50;;
39680;SDS011;26327;42.550;23.120;2022-08-19T18:54:41;11.52;;;7.60;;
39680;SDS011;26327;42.550;23.120;2022-08-19T18:57:10;11.48;;;8.02;;
39680;SDS011;26327;42.550;23.120;2022-08-19T18:59:36;12.55;;;8.60;;
39680;SDS011;26327;42.550;23.120;2022-08-19T19:02:07;13.60;;;8.15;;
39680;SDS011;26327;42.550;23.120;2022-08-19T19:04:35;14.85;;;8.20;;
39680;SDS011;26327;42.550;23.120;2022-08-19T19:07:05;14.73;;;8.52;;
39680;SDS011;26327;42.550;23.120;2022-08-19T19:09:31;17.83;;;10.80;;
39680;SDS011;26327;42.550;23.120;2022-08-19T19:11:59;13.43;;;9.10;;
39680;SDS011;26327;42.550;23.120;2022-08-19T19:14:27;13.95;;;7.65;;
39680;SDS011;26327;42.550;23.120;2022-08-19T19:16:59;11.65;;;8.25;;
39680;SDS011;26327;42.550;23.120;2022-08-19T19:19:28;12.40;;;8.25;;
39680;SDS011;26327;42.550;23.120;2022-08-19T19:21:55;13.68;;;8.15;;
39680;SDS011;26327;42.550;23.120;2022-08-19T19:24:22;15.77;;;8.20;;
39680;SDS011;26327;42.550;23.120;2022-08-19T19:26:53;11.20;;;8.10;;
39680;SDS011;26327;42.550;23.120;2022-08-19T19:29:18;14.95;;;8.15;;
39680;SDS011;26327;42.550;23.120;2022-08-19T19:31:44;12.63;;;8.00;;
39680;SDS011;26327;42.550;23.120;2022-08-19T19:34:11;13.13;;;8.50;;
39680;SDS011;26327;42.550;23.120;2022-08-19T19:36:38;12.35;;;8.15;;
39680;SDS011;26327;42.550;23.120;2022-08-19T19:39:05;14.15;;;8.32;;
39680;SDS011;26327;42.550;23.120;2022-08-19T19:41:31;8.90;;;7.68;;
39680;SDS011;26327;42.550;23.120;2022-08-19T19:43:57;13.13;;;7.75;;
39680;SDS011;26327;42.550;23.120;2022-08-19T19:46:28;14.93;;;8.23;;
39680;SDS011;26327;42.550;23.120;2022-08-19T19:48:55;14.25;;;8.20;;
39680;SDS011;26327;42.550;23.120;2022-08-19T19:51:22;12.43;;;8.15;;
39680;SDS011;26327;42.550;23.120;2022-08-19T19:53:49;13.85;;;8.63;;
39680;SDS011;26327;42.550;23.120;2022-08-19T19:56:15;13.90;;;8.70;;
39680;SDS011;26327;42.550;23.120;2022-08-19T19:58:41;12.43;;;7.68;;
39680;SDS011;26327;42.550;23.120;2022-08-19T20:01:09;14.65;;;7.93;;
39680;SDS011;26327;42.550;23.120;2022-08-19T20:03:40;18.38;;;8.60;;
39680;SDS011;26327;42.550;23.120;2022-08-19T20:06:08;14.88;;;9.05;;
39680;SDS011;26327;42.550;23.120;2022-08-19T20:08:34;13.30;;;8.00;;
39680;SDS011;26327;42.550;23.120;2022-08-19T20:11:53;12.43;;;8.35;;
39680;SDS011;26327;42.550;23.120;2022-08-19T20:16:39;17.02;;;8.35;;
39680;SDS011;26327;42.550;23.120;2022-08-19T20:19:07;13.68;;;7.78;;
39680;SDS011;26327;42.550;23.120;2022-08-19T20:21:34;13.00;;;8.85;;
39680;SDS011;26327;42.550;23.120;2022-08-19T20:24:12;11.07;;;8.88;;
39680;SDS011;26327;42.550;23.120;2022-08-19T20:26:40;10.18;;;7.88;;
39680;SDS011;26327;42.550;23.120;2022-08-19T20:31:35;14.02;;;8.23;;
39680;SDS011;26327;42.550;23.120;2022-08-19T20:34:01;17.27;;;8.65;;
39680;SDS011;26327;42.550;23.120;2022-08-19T20:36:27;15.18;;;9.00;;
39680;SDS011;26327;42.550;23.120;2022-08-19T20:38:53;13.95;;;8.70;;
39680;SDS011;26327;42.550;23.120;2022-08-19T20:41:18;10.45;;;7.15;;
39680;SDS011;26327;42.550;23.120;2022-08-19T20:43:45;13.30;;;7.88;;
39680;SDS011;26327;42.550;23.120;2022-08-19T20:46:11;14.77;;;8.20;;
39680;SDS011;26327;42.550;23.120;2022-08-19T20:48:37;10.45;;;7.45;;
39680;SDS011;26327;42.550;23.120;2022-08-19T20:51:04;17.20;;;9.40;;
39680;SDS011;26327;42.550;23.120;2022-08-19T20:53:30;14.65;;;8.88;;
39680;SDS011;26327;42.550;23.120;2022-08-19T20:55:56;13.98;;;8.57;;
39680;SDS011;26327;42.550;23.120;2022-08-19T20:58:22;15.48;;;8.95;;
39680;SDS011;26327;42.550;23.120;2022-08-19T21:00:53;18.25;;;8.70;;
39680;SDS011;26327;42.550;23.120;2022-08-19T21:03:23;14.45;;;8.55;;
39680;SDS011;26327;42.550;23.120;2022-08-19T21:05:51;13.48;;;8.40;;
39680;SDS011;26327;42.550;23.120;2022-08-19T21:08:18;12.48;;;8.38;;
39680;SDS011;26327;42.550;23.120;2022-08-19T21:10:45;12.75;;;8.25;;
39680;SDS011;26327;42.550;23.120;2022-08-19T21:13:11;12.43;;;8.00;;
39680;SDS011;26327;42.550;23.120;2022-08-19T21:15:37;13.80;;;8.82;;
39680;SDS011;26327;42.550;23.120;2022-08-19T21:18:05;11.45;;;8.40;;
39680;SDS011;26327;42.550;23.120;2022-08-19T21:20:31;12.20;;;7.95;;
39680;SDS011;26327;42.550;23.120;2022-08-19T21:22:56;11.15;;;8.25;;
39680;SDS011;26327;42.550;23.120;2022-08-19T21:25:26;14.27;;;7.93;;
39680;SDS011;26327;42.550;23.120;2022-08-19T21:27:51;11.80;;;7.38;;
39680;SDS011;26327;42.550;23.120;2022-08-19T21:30:17;13.48;;;7.45;;
39680;SDS011;26327;42.550;23.120;2022-08-19T21:32:42;10.98;;;8.07;;
39680;SDS011;26327;42.550;23.120;2022-08-19T21:35:08;11.80;;;8.13;;
39680;SDS011;26327;42.550;23.120;2022-08-19T21:37:33;14.80;;;8.75;;
39680;SDS011;26327;42.550;23.120;2022-08-19T21:40:00;13.57;;;8.50;;
